Time,TemperatureF,DewpointF,PressureIn,WindDirection,WindDirectionDegrees,WindSpeedMPH,WindSpeedGustMPH,Humidity,HourlyPrecipIn,Conditions,Clouds,dailyrainin,SoftwareType,DateUTC
2013-07-02 00:14:00,69.5,67.0,29.95,NE,52,2.0,5.0,90,0.00,,,0.00,weatherlink.com 1.10,2013-07-02 04:14:00,
2013-07-02 00:29:00,69.6,66.0,29.95,East,100,2.0,5.0,89,0.00,,,0.00,weatherlink.com 1.10,2013-07-02 04:29:00,
2013-07-02 00:44:00,69.4,66.0,29.95,ESE,105,2.0,4.0,90,0.00,,,0.00,weatherlink.com 1.10,2013-07-02 04:44:00,
2013-07-02 00:59:00,69.3,66.0,29.95,East,89,4.0,6.0,90,0.00,,,0.00,weatherlink.com 1.10,2013-07-02 04:59:00,
2013-07-02 01:14:00,69.3,66.0,29.96,East,96,4.0,6.0,89,0.00,,,0.00,weatherlink.com 1.10,2013-07-02 05:14:00,
2013-07-02 01:29:00,69.6,66.0,29.96,ESE,103,2.0,5.0,89,0.00,,,0.00,weatherlink.com 1.10,2013-07-02 05:29:00,
2013-07-02 01:44:00,69.0,66.0,29.96,ESE,117,4.0,6.0,90,0.00,,,0.00,weatherlink.com 1.10,2013-07-02 05:44:00,
2013-07-02 02:00:00,68.8,66.0,29.97,ESE,104,3.0,5.0,91,0.00,,,0.00,weatherlink.com 1.10,2013-07-02 06:00:00,
2013-07-02 02:15:00,68.1,66.0,29.97,ESE,104,4.0,7.0,93,0.00,,,0.00,weatherlink.com 1.10,2013-07-02 06:15:00,
2013-07-02 02:30:00,67.9,66.0,29.96,ESE,113,3.0,5.0,94,0.00,,,0.00,weatherlink.com 1.10,2013-07-02 06:30:00,
2013-07-02 02:45:00,68.1,66.0,29.96,ESE,117,3.0,5.0,93,0.00,,,0.00,weatherlink.com 1.10,2013-07-02 06:45:00,
2013-07-02 03:00:00,68.0,66.0,29.96,East,95,1.0,4.0,93,0.00,,,0.00,weatherlink.com 1.10,2013-07-02 07:00:00,
2013-07-02 03:15:00,67.6,66.0,29.97,SE,132,3.0,3.0,94,0.00,,,0.00,weatherlink.com 1.10,2013-07-02 07:15:00,
2013-07-02 03:30:00,67.8,66.0,29.97,SE,128,1.0,3.0,94,0.00,,,0.00,weatherlink.com 1.10,2013-07-02 07:30:00,
2013-07-02 03:45:00,67.6,66.0,29.97,SE,127,0.0,4.0,94,0.00,,,0.00,weatherlink.com 1.10,2013-07-02 07:45:00,
2013-07-02 04:00:00,67.5,66.0,29.96,East,89,1.0,3.0,95,0.00,,,0.00,weatherlink.com 1.10,2013-07-02 08:00:00,
2013-07-02 04:15:00,67.4,66.0,29.96,ESE,122,2.0,2.0,95,0.00,,,0.00,weatherlink.com 1.10,2013-07-02 08:15:00,
2013-07-02 04:30:00,67.3,66.0,29.97,East,94,1.0,3.0,95,0.00,,,0.00,weatherlink.com 1.10,2013-07-02 08:30:00,
2013-07-02 04:45:00,67.5,66.0,29.97,ESE,116,4.0,4.0,95,0.00,,,0.00,weatherlink.com 1.10,2013-07-02 08:45:00,
2013-07-02 05:00:00,66.8,66.0,29.98,East,91,5.0,6.0,96,0.00,,,0.00,weatherlink.com 1.10,2013-07-02 09:00:00,
2013-07-02 05:15:00,66.8,66.0,29.98,ESE,115,4.0,7.0,97,0.01,,,0.01,weatherlink.com 1.10,2013-07-02 09:15:00,
2013-07-02 05:30:00,66.8,66.0,29.99,SE,132,2.0,8.0,97,0.03,,,0.03,weatherlink.com 1.10,2013-07-02 09:30:00,
2013-07-02 05:45:00,66.8,66.0,29.99,ESE,119,4.0,4.0,97,0.03,,,0.03,weatherlink.com 1.10,2013-07-02 09:45:00,
2013-07-02 06:00:00,66.9,66.0,30.00,SE,139,1.0,5.0,97,0.03,,,0.03,weatherlink.com 1.10,2013-07-02 10:00:00,
2013-07-02 06:15:00,67.2,66.0,30.00,SE,130,2.0,5.0,97,0.02,,,0.03,weatherlink.com 1.10,2013-07-02 10:15:00,
2013-07-02 06:30:00,67.0,66.0,30.00,SE,144,1.0,2.0,97,0.00,,,0.03,weatherlink.com 1.10,2013-07-02 10:30:00,
2013-07-02 06:45:00,67.0,66.0,30.00,SSW,210,1.0,3.0,97,0.00,,,0.03,weatherlink.com 1.10,2013-07-02 10:45:00,
2013-07-02 07:00:00,66.9,66.0,30.00,West,271,0.0,3.0,97,0.00,,,0.03,weatherlink.com 1.10,2013-07-02 11:00:00,
2013-07-02 07:15:00,67.9,67.0,30.01,SSE,151,1.0,2.0,96,0.00,,,0.03,weatherlink.com 1.10,2013-07-02 11:15:00,
2013-07-02 07:30:00,67.6,67.0,30.01,SE,125,2.0,4.0,96,0.00,,,0.03,weatherlink.com 1.10,2013-07-02 11:30:00,
2013-07-02 07:45:00,67.3,66.0,30.02,East,88,3.0,3.0,96,0.00,,,0.03,weatherlink.com 1.10,2013-07-02 11:45:00,
2013-07-02 08:00:00,67.4,67.0,30.03,SE,127,3.0,5.0,97,0.00,,,0.03,weatherlink.com 1.10,2013-07-02 12:00:00,
2013-07-02 08:15:00,67.8,67.0,30.03,ESE,102,3.0,6.0,97,0.00,,,0.03,weatherlink.com 1.10,2013-07-02 12:15:00,
2013-07-02 08:30:00,68.3,67.0,30.03,East,95,2.0,7.0,96,0.00,,,0.03,weatherlink.com 1.10,2013-07-02 12:30:00,
2013-07-02 08:45:00,69.0,68.0,30.03,East,87,0.0,5.0,95,0.00,,,0.03,weatherlink.com 1.10,2013-07-02 12:45:00,
2013-07-02 09:00:00,70.0,68.0,30.03,East,81,2.0,3.0,92,0.00,,,0.03,weatherlink.com 1.10,2013-07-02 13:00:00,
2013-07-02 09:15:00,71.8,69.0,30.03,East,84,0.0,4.0,89,0.00,,,0.03,weatherlink.com 1.10,2013-07-02 13:15:00,
2013-07-02 09:30:00,73.5,68.0,30.03,ESE,120,5.0,6.0,84,0.00,,,0.03,weatherlink.com 1.10,2013-07-02 13:30:00,
2013-07-02 09:45:00,74.4,69.0,30.04,SSE,150,0.0,5.0,82,0.00,,,0.03,weatherlink.com 1.10,2013-07-02 13:45:00,
2013-07-02 10:00:00,77.8,70.0,30.04,SE,139,0.0,4.0,77,0.00,,,0.03,weatherlink.com 1.10,2013-07-02 14:00:00,
2013-07-02 10:16:00,77.5,69.0,30.04,ENE,64,0.0,2.0,76,0.00,,,0.03,weatherlink.com 1.10,2013-07-02 14:16:00,
2013-07-02 10:31:00,77.8,69.0,30.04,ESE,116,3.0,9.0,75,0.00,,,0.03,weatherlink.com 1.10,2013-07-02 14:31:00,
2013-07-02 10:46:00,78.3,70.0,30.04,SW,231,1.0,9.0,76,0.00,,,0.03,weatherlink.com 1.10,2013-07-02 14:46:00,
2013-07-02 11:01:00,78.9,69.0,30.05,SE,141,6.0,12.0,71,0.00,,,0.03,weatherlink.com 1.10,2013-07-02 15:01:00,
2013-07-02 11:16:00,78.0,67.0,30.05,WSW,240,3.0,11.0,68,0.00,,,0.03,weatherlink.com 1.10,2013-07-02 15:16:00,
2013-07-02 11:31:00,77.5,67.0,30.05,South,183,1.0,10.0,71,0.00,,,0.03,weatherlink.com 1.10,2013-07-02 15:31:00,
2013-07-02 11:46:00,78.9,68.0,30.05,West,259,4.0,6.0,70,0.00,,,0.03,weatherlink.com 1.10,2013-07-02 15:46:00,
2013-07-02 12:01:00,77.4,67.0,30.05,SW,223,5.0,8.0,70,0.00,,,0.03,weatherlink.com 1.10,2013-07-02 16:01:00,
2013-07-02 12:16:00,78.9,68.0,30.05,WNW,296,0.0,6.0,70,0.00,,,0.03,weatherlink.com 1.10,2013-07-02 16:16:00,
2013-07-02 12:31:00,77.8,66.0,30.05,WNW,302,5.0,11.0,67,0.00,,,0.03,weatherlink.com 1.10,2013-07-02 16:31:00,
2013-07-02 12:46:00,72.6,67.0,30.04,NW,308,7.0,8.0,82,0.06,,,0.09,weatherlink.com 1.10,2013-07-02 16:46:00,
2013-07-02 13:01:00,72.2,68.0,30.04,NNW,334,2.0,6.0,85,0.06,,,0.09,weatherlink.com 1.10,2013-07-02 17:01:00,
2013-07-02 13:16:00,72.5,69.0,30.04,NNW,327,0.0,6.0,87,0.06,,,0.09,weatherlink.com 1.10,2013-07-02 17:16:00,
2013-07-02 13:31:00,74.6,71.0,30.04,NE,56,1.0,2.0,88,0.06,,,0.09,weatherlink.com 1.10,2013-07-02 17:31:00,
2013-07-02 13:46:00,76.2,71.0,30.04,NNW,330,2.0,7.0,84,0.00,,,0.09,weatherlink.com 1.10,2013-07-02 17:46:00,
2013-07-02 14:01:00,74.1,69.0,30.05,WNW,300,7.0,8.0,85,0.01,,,0.10,weatherlink.com 1.10,2013-07-02 18:01:00,
2013-07-02 14:16:00,71.9,67.0,30.05,West,272,5.0,8.0,85,0.07,,,0.16,weatherlink.com 1.10,2013-07-02 18:16:00,
2013-07-02 14:31:00,71.2,68.0,30.06,SSE,161,4.0,6.0,89,0.10,,,0.19,weatherlink.com 1.10,2013-07-02 18:31:00,
2013-07-02 14:46:00,71.4,69.0,30.07,SSE,156,5.0,6.0,91,0.11,,,0.20,weatherlink.com 1.10,2013-07-02 18:46:00,
2013-07-02 15:01:00,71.3,69.0,30.06,WSW,253,4.0,7.0,91,0.12,,,0.22,weatherlink.com 1.10,2013-07-02 19:01:00,
2013-07-02 15:16:00,71.5,68.0,30.06,SE,129,3.0,3.0,87,0.06,,,0.22,weatherlink.com 1.10,2013-07-02 19:16:00,
2013-07-02 15:31:00,71.9,69.0,30.06,SE,140,1.0,5.0,89,0.03,,,0.22,weatherlink.com 1.10,2013-07-02 19:31:00,
2013-07-02 15:46:00,72.3,69.0,30.06,SE,138,2.0,4.0,88,0.02,,,0.22,weatherlink.com 1.10,2013-07-02 19:46:00,
2013-07-02 16:01:00,72.9,68.0,30.06,SSE,151,2.0,5.0,85,0.00,,,0.22,weatherlink.com 1.10,2013-07-02 20:01:00,
2013-07-02 16:16:00,74.2,70.0,30.05,SE,139,1.0,6.0,85,0.00,,,0.22,weatherlink.com 1.10,2013-07-02 20:16:00,
2013-07-02 16:31:00,76.1,70.0,30.05,SE,131,3.0,5.0,80,0.00,,,0.22,weatherlink.com 1.10,2013-07-02 20:31:00,
2013-07-02 16:46:00,74.5,68.0,30.05,SSE,165,3.0,6.0,79,0.00,,,0.22,weatherlink.com 1.10,2013-07-02 20:46:00,
2013-07-02 17:01:00,74.3,68.0,30.05,South,179,3.0,5.0,80,0.00,,,0.22,weatherlink.com 1.10,2013-07-02 21:01:00,
2013-07-02 17:16:00,74.3,67.0,30.04,SW,234,0.0,3.0,78,0.00,,,0.22,weatherlink.com 1.10,2013-07-02 21:16:00,
2013-07-02 17:31:00,77.8,69.0,30.04,West,271,0.0,3.0,74,0.00,,,0.22,weatherlink.com 1.10,2013-07-02 21:31:00,
2013-07-02 17:46:00,80.9,69.0,30.04,WNW,300,0.0,3.0,68,0.00,,,0.22,weatherlink.com 1.10,2013-07-02 21:46:00,
2013-07-02 18:01:00,81.5,68.0,30.04,West,260,4.0,4.0,63,0.00,,,0.22,weatherlink.com 1.10,2013-07-02 22:01:00,
2013-07-02 18:16:00,80.7,68.0,30.04,SSE,151,1.0,4.0,65,0.00,,,0.22,weatherlink.com 1.10,2013-07-02 22:16:00,
2013-07-02 18:31:00,80.8,67.0,30.03,WSW,240,2.0,5.0,63,0.00,,,0.22,weatherlink.com 1.10,2013-07-02 22:31:00,
2013-07-02 18:46:00,79.9,67.0,30.04,SW,219,2.0,6.0,65,0.00,,,0.22,weatherlink.com 1.10,2013-07-02 22:46:00,
2013-07-02 19:02:00,80.1,68.0,30.04,SE,146,4.0,7.0,66,0.00,,,0.22,weatherlink.com 1.10,2013-07-02 23:02:00,
2013-07-02 19:16:00,80.2,68.0,30.04,WSW,258,2.0,5.0,67,0.00,,,0.22,weatherlink.com 1.10,2013-07-02 23:16:00,
2013-07-02 19:31:00,80.2,68.0,30.05,SE,143,2.0,3.0,67,0.00,,,0.22,weatherlink.com 1.10,2013-07-02 23:31:00,
2013-07-02 19:46:00,78.2,71.0,30.05,SE,131,2.0,5.0,78,0.00,,,0.22,weatherlink.com 1.10,2013-07-02 23:46:00,
2013-07-02 20:01:00,76.7,71.0,30.06,ESE,113,4.0,6.0,81,0.00,,,0.22,weatherlink.com 1.10,2013-07-03 00:01:00,
2013-07-02 20:16:00,74.9,70.0,30.06,East,91,5.0,10.0,85,0.00,,,0.22,weatherlink.com 1.10,2013-07-03 00:16:00,
2013-07-02 20:31:00,73.9,70.0,30.07,ESE,103,5.0,6.0,87,0.00,,,0.22,weatherlink.com 1.10,2013-07-03 00:31:00,
2013-07-02 20:46:00,73.5,70.0,30.07,ESE,117,2.0,6.0,88,0.00,,,0.22,weatherlink.com 1.10,2013-07-03 00:46:00,
2013-07-02 21:01:00,73.2,70.0,30.07,ESE,103,3.0,7.0,89,0.00,,,0.22,weatherlink.com 1.10,2013-07-03 01:01:00,
2013-07-02 21:16:00,73.5,69.0,30.08,ESE,119,4.0,5.0,86,0.00,,,0.22,weatherlink.com 1.10,2013-07-03 01:16:00,
2013-07-02 21:31:00,73.3,69.0,30.08,ESE,120,5.0,7.0,87,0.00,,,0.22,weatherlink.com 1.10,2013-07-03 01:31:00,
2013-07-02 21:46:00,72.7,69.0,30.08,East,94,3.0,7.0,88,0.00,,,0.22,weatherlink.com 1.10,2013-07-03 01:46:00,
2013-07-02 22:01:00,72.3,69.0,30.09,East,80,4.0,7.0,89,0.00,,,0.22,weatherlink.com 1.10,2013-07-03 02:01:00,
2013-07-02 22:46:00,71.7,68.0,30.10,NW,304,6.0,6.0,89,0.00,,,0.22,weatherlink.com 1.10,2013-07-03 02:46:00,
2013-07-02 23:01:00,71.1,68.0,30.11,North,351,1.0,3.0,90,0.00,,,0.22,weatherlink.com 1.10,2013-07-03 03:01:00,
2013-07-02 23:16:00,72.1,67.0,30.11,NNE,15,1.0,4.0,85,0.00,,,0.22,weatherlink.com 1.10,2013-07-03 03:16:00,
2013-07-02 23:31:00,72.2,68.0,30.11,ENE,57,1.0,2.0,85,0.00,,,0.22,weatherlink.com 1.10,2013-07-03 03:31:00,
2013-07-02 23:46:00,72.1,67.0,30.11,East,86,3.0,5.0,85,0.00,,,0.22,weatherlink.com 1.10,2013-07-03 03:46:00,